createdAt,value
2023-03-06T00:03:33.264Z,1010.65
2023-03-06T00:32:30.886Z,1010.73
2023-03-06T01:01:31.335Z,1010.6
2023-03-06T01:30:34.393Z,1010.13
2023-03-06T01:59:37.684Z,1009.87
2023-03-06T02:28:38.381Z,1009.51
2023-03-06T02:57:37.682Z,1009.33
2023-03-06T03:26:41.936Z,1009.09
2023-03-06T03:55:46.907Z,1008.89
2023-03-06T04:24:50.531Z,1008.79
2023-03-06T04:53:53.188Z,1008.76
2023-03-06T05:22:55.645Z,1008.65
2023-03-06T05:52:01.553Z,1008.48
2023-03-06T06:20:57.399Z,1008.57
2023-03-06T06:49:54.570Z,1008.83
2023-03-06T07:18:43.260Z,1008.99
2023-03-06T07:47:31.384Z,1009.12
2023-03-06T08:16:30.405Z,1009.16
2023-03-06T08:45:27.929Z,1009.13
2023-03-06T09:14:22.405Z,1009.3
2023-03-06T09:43:21.426Z,1009.5
2023-03-06T10:12:25.741Z,1009.49
2023-03-06T10:40:56.122Z,1009.36
2023-03-06T11:09:53.273Z,1009.3
2023-03-06T11:38:52.293Z,1009.1
2023-03-06T12:07:40.367Z,1008.98
2023-03-06T12:36:40.583Z,1008.63
2023-03-06T13:05:37.681Z,1008.55
2023-03-06T13:34:32.119Z,1008.6
2023-03-06T14:03:29.592Z,1008.5
2023-03-06T14:32:21.015Z,1008.42
2023-03-06T15:01:09.683Z,1008.19
2023-03-06T15:30:04.102Z,1008.16
2023-03-06T15:58:54.942Z,1008.12
2023-03-06T16:27:51.733Z,1008.17
2023-03-06T16:56:24.088Z,1008.32
2023-03-06T17:25:26.089Z,1008.68
2023-03-06T17:54:19.500Z,1008.74
2023-03-06T18:23:23.488Z,1008.86
2023-03-06T18:52:31.771Z,1008.77
2023-03-06T19:21:35.365Z,1008.79
2023-03-06T19:50:25.799Z,1008.69
2023-03-06T20:19:24.339Z,1008.48
2023-03-06T20:48:22.217Z,1008.33
2023-03-06T21:17:22.229Z,1008.34
2023-03-06T21:46:22.838Z,1008.14
2023-03-06T22:15:21.719Z,1007.97
2023-03-06T22:44:21.305Z,1008.02
2023-03-06T23:13:24.822Z,1007.75
2023-03-06T23:42:27.518Z,1007.65
